Oxford House Airport


Codes: CYOH/YOH
Name: Oxford House Airport
City: Oxford House
Country: Canada
Elevation: 663 ft.
Wikipedia:

Photos at Oxford House Airport


   Photos courtesy of SpottingLog. You can add your own sightings and photos by signing up for a free trial today.



No photos found.

Weather at Oxford House Airport


Time (UTC)DescriptionTempratureWindCloud coverageVisibilityPressureHumidity
21-Feb-2024 03:00Overcast Clouds-19°C7 mph, NE97%10000m1020hPa95%
21-Feb-2024 06:00Overcast Clouds-22°C4 mph, NE96%10000m1020hPa97%
21-Feb-2024 09:00Scattered Clouds-26°C4 mph, NE39%10000m1020hPa98%
21-Feb-2024 12:00Broken Clouds-27°C4 mph, NE57%10000m1020hPa98%
21-Feb-2024 15:00Overcast Clouds-23°C4 mph, E95%10000m1018hPa94%
21-Feb-2024 18:00Overcast Clouds-16°C4 mph, SE95%3916m1016hPa88%
21-Feb-2024 21:00Overcast Clouds-13°C4 mph, S100%3130m1013hPa85%
22-Feb-2024 00:00Overcast Clouds-15°C2 mph, S100%6618m1011hPa98%
22-Feb-2024 03:00Light Snow-14°C4 mph, S100%273m1008hPa96%
22-Feb-2024 06:00Light Snow-12°C4 mph, S100%119m1003hPa96%
22-Feb-2024 09:00Snow-11°C2 mph, N100%120m1001hPa96%
22-Feb-2024 12:00Light Snow-14°C11 mph, N100%1228m1005hPa93%
22-Feb-2024 15:00Overcast Clouds-20°C11 mph, N100%4558m1011hPa93%
22-Feb-2024 18:00Overcast Clouds-20°C13 mph, N100%6532m1015hPa86%
22-Feb-2024 21:00Overcast Clouds-20°C11 mph, N100%10000m1018hPa83%
23-Feb-2024 00:00Overcast Clouds-25°C4 mph, NW100%10000m1020hPa96%
23-Feb-2024 03:00Scattered Clouds-31°C2 mph, NW43%10000m1022hPa100%
23-Feb-2024 06:00Scattered Clouds-30°C4 mph, W25%10000m1022hPa99%
23-Feb-2024 09:00Clear Sky-29°C7 mph, W10%10000m1021hPa95%
23-Feb-2024 12:00Few Clouds-29°C7 mph, W11%10000m1021hPa94%
23-Feb-2024 15:00Few Clouds-26°C7 mph, NW12%10000m1021hPa88%
23-Feb-2024 18:00Clear Sky-18°C7 mph, NW9%10000m1019hPa77%
23-Feb-2024 21:00Few Clouds-14°C7 mph, W17%10000m1017hPa75%
24-Feb-2024 00:00Broken Clouds-17°C4 mph, SW58%10000m1014hPa92%
24-Feb-2024 03:00Overcast Clouds-15°C9 mph, S100%10000m1010hPa89%
24-Feb-2024 06:00Overcast Clouds-14°C11 mph, S100%10000m1005hPa83%
24-Feb-2024 09:00Light Snow-13°C11 mph, S100%371m999hPa93%
24-Feb-2024 12:00Light Snow-11°C11 mph, SW100%2203m995hPa93%
24-Feb-2024 15:00Light Snow-8°C11 mph, SW100%1422m991hPa94%
24-Feb-2024 18:00Light Snow-3°C11 mph, W100%8784m989hPa91%
24-Feb-2024 21:00Light Snow-0°C13 mph, W90%10000m987hPa80%
25-Feb-2024 00:00Light Snow-3°C9 mph, W85%1941m987hPa92%
25-Feb-2024 03:00Light Snow-10°C16 mph, NW100%10000m991hPa84%
25-Feb-2024 06:00Overcast Clouds-15°C13 mph, NW100%2039m995hPa88%
25-Feb-2024 09:00Overcast Clouds-19°C13 mph, NW100%8236m998hPa90%
25-Feb-2024 12:00Overcast Clouds-23°C11 mph, NW100%10000m1001hPa90%
25-Feb-2024 15:00Overcast Clouds-23°C11 mph, NW98%10000m1004hPa90%
25-Feb-2024 18:00Overcast Clouds-20°C11 mph, NW97%10000m1006hPa85%
25-Feb-2024 21:00Overcast Clouds-18°C11 mph, NW100%10000m1008hPa81%
26-Feb-2024 00:00Overcast Clouds-20°C7 mph, NW100%10000m1011hPa89%